Time;durP1;ratioP1;P1;durP2;ratioP2;P2;SDS_P1;SDS_P2;PMS_P1;PMS_P2;Temp;Humidity;BMP_temperature;BMP_pressure;BME280_temperature;BME280_humidity;BME280_pressure;Samples;Min_cycle;Max_cycle;Signal;HPM_P1;HPM_P2
2023/10/31 00:02:30;;;;;;;1.20;1.00;;;13.60;99.90;;;;;;4997829;28;20475;-87
2023/10/31 00:05:21;;;;;;;1.43;1.33;;;13.60;99.90;;;;;;5005622;28;20426;-87
2023/10/31 00:08:10;;;;;;;1.13;1.10;;;13.60;99.90;;;;;;5018206;28;20819;-88
2023/10/31 00:10:54;;;;;;;2.23;1.43;;;13.60;99.90;;;;;;5015443;28;20508;-85
2023/10/31 00:14:04;;;;;;;1.40;1.30;;;13.60;99.90;;;;;;5008148;28;20554;-86
2023/10/31 00:17:06;;;;;;;1.70;1.60;;;13.60;99.90;;;;;;4996528;28;20478;-86
2023/10/31 00:20:16;;;;;;;2.13;2.03;;;13.60;99.90;;;;;;5002290;28;20442;-86
2023/10/31 00:22:55;;;;;;;2.10;2.00;;;13.70;99.90;;;;;;5000822;28;20490;-88
2023/10/31 00:25:34;;;;;;;2.03;1.90;;;13.70;99.90;;;;;;5003934;28;20452;-88
2023/10/31 00:31:54;;;;;;;1.70;1.60;;;13.60;99.90;;;;;;5021764;28;20442;-87
2023/10/31 00:34:42;;;;;;;2.40;2.27;;;13.60;99.90;;;;;;4998011;23;20580;-86
2023/10/31 00:37:41;;;;;;;2.63;2.43;;;13.70;99.90;;;;;;4992460;28;20783;-88
2023/10/31 00:40:45;;;;;;;2.23;2.07;;;13.60;99.90;;;;;;4991011;28;20998;-86
2023/10/31 00:43:49;;;;;;;2.20;2.10;;;13.60;99.90;;;;;;4984096;28;20534;-85
2023/10/31 00:47:17;;;;;;;1.90;1.80;;;13.60;99.90;;;;;;4995784;28;20447;-87
2023/10/31 00:50:11;;;;;;;1.80;1.70;;;13.50;99.90;;;;;;4986726;28;20474;-85
2023/10/31 00:53:27;;;;;;;2.17;2.07;;;13.40;99.90;;;;;;4990746;28;20967;-90
2023/10/31 00:56:19;;;;;;;2.33;1.90;;;13.30;99.90;;;;;;5004823;28;20487;-87
2023/10/31 00:58:55;;;;;;;3.43;1.50;;;13.30;99.90;;;;;;4981497;28;20550;-87
2023/10/31 01:01:44;;;;;;;1.97;1.77;;;13.30;99.90;;;;;;4986683;28;20822;-87
2023/10/31 01:08:10;;;;;;;2.00;1.77;;;13.30;99.90;;;;;;4994512;28;20455;-85
2023/10/31 01:11:08;;;;;;;2.00;1.77;;;13.30;99.90;;;;;;4997047;28;20442;-86
2023/10/31 01:13:58;;;;;;;4.83;1.53;;;13.30;99.90;;;;;;5002615;28;20500;-86
2023/10/31 01:16:57;;;;;;;1.27;1.13;;;13.30;99.90;;;;;;4995177;28;20478;-87
2023/10/31 01:20:05;;;;;;;4.03;2.30;;;13.30;99.90;;;;;;4981619;28;20440;-87
2023/10/31 01:22:59;;;;;;;2.03;1.20;;;13.20;99.90;;;;;;4985090;28;20526;-87
2023/10/31 01:26:05;;;;;;;1.50;1.40;;;13.10;99.90;;;;;;4986739;28;20785;-86
2023/10/31 01:29:05;;;;;;;1.70;1.60;;;13.10;99.90;;;;;;4981550;28;20481;-87
2023/10/31 01:38:55;;;;;;;2.03;1.53;;;13.00;99.90;;;;;;5040365;28;20473;-88
2023/10/31 01:42:02;;;;;;;1.93;1.30;;;13.00;99.90;;;;;;5039063;28;20452;-90
2023/10/31 01:48:12;;;;;;;2.23;1.60;;;13.00;99.90;;;;;;4999582;28;20398;-87
2023/10/31 01:50:56;;;;;;;3.43;1.53;;;12.90;99.90;;;;;;5006446;28;20451;-88
2023/10/31 01:54:21;;;;;;;4.57;1.50;;;12.90;99.90;;;;;;4990976;28;20509;-87
2023/10/31 01:57:31;;;;;;;5.07;2.10;;;12.90;99.90;;;;;;5002422;28;20483;-87
2023/10/31 02:00:23;;;;;;;1.77;1.23;;;12.90;99.90;;;;;;5002486;28;20455;-85
2023/10/31 02:03:17;;;;;;;3.23;1.17;;;12.90;99.90;;;;;;5005267;28;20478;-88
2023/10/31 02:06:21;;;;;;;1.30;1.20;;;12.90;99.90;;;;;;4990323;28;20530;-88
2023/10/31 02:09:15;;;;;;;1.43;1.33;;;13.10;99.90;;;;;;4992346;28;20447;-87
2023/10/31 02:12:15;;;;;;;;;;;;;;;;;;;;;
2023/10/31 02:14:57;;;;;;;1.80;1.20;;;13.40;99.90;;;;;;5006526;28;20521;-88
2023/10/31 02:18:08;;;;;;;1.63;1.30;;;13.30;99.90;;;;;;4992348;28;20478;-87
2023/10/31 02:21:08;;;;;;;1.37;1.00;;;13.30;99.90;;;;;;5001639;28;20451;-86
2023/10/31 02:24:12;;;;;;;5.37;1.20;;;13.20;99.90;;;;;;4979667;28;20479;-86
2023/10/31 02:27:16;;;;;;;3.03;1.70;;;13.20;99.90;;;;;;4983237;28;20485;-87
2023/10/31 02:30:44;;;;;;;2.43;1.47;;;13.10;99.90;;;;;;4999958;28;20518;-86
2023/10/31 02:33:20;;;;;;;1.43;1.20;;;13.20;99.90;;;;;;4943775;29;20481;-86
2023/10/31 02:36:53;;;;;;;2.70;1.20;;;13.10;99.90;;;;;;4958543;28;20513;-86
2023/10/31 02:40:05;;;;;;;2.00;1.17;;;13.00;99.90;;;;;;4979777;28;20451;-87
2023/10/31 02:43:21;;;;;;;3.27;1.00;;;13.00;99.90;;;;;;4965081;28;20554;-87
2023/10/31 02:46:22;;;;;;;1.30;1.20;;;13.00;99.90;;;;;;4990970;28;20454;-87
2023/10/31 02:49:24;;;;;;;3.00;1.40;;;12.80;99.90;;;;;;4998079;28;20486;-88
2023/10/31 02:51:55;;;;;;;2.37;1.40;;;12.70;99.90;;;;;;5002075;28;20470;-91
2023/10/31 02:55:09;;;;;;;2.67;1.10;;;12.70;99.90;;;;;;5004588;28;20447;-90
2023/10/31 02:57:52;;;;;;;1.50;1.33;;;12.70;99.90;;;;;;4971358;28;20558;-86
2023/10/31 03:01:17;;;;;;;1.33;0.90;;;12.70;99.90;;;;;;4995791;28;20455;-87
2023/10/31 03:03:57;;;;;;;1.30;1.00;;;13.00;99.90;;;;;;4976032;28;20478;-86
2023/10/31 03:07:04;;;;;;;1.97;1.10;;;13.30;99.90;;;;;;4988653;28;20872;-86
2023/10/31 03:09:55;;;;;;;3.17;1.23;;;13.30;99.90;;;;;;5002924;28;20451;-86
2023/10/31 03:12:42;;;;;;;1.93;1.00;;;13.30;99.90;;;;;;4989828;28;20526;-87
2023/10/31 03:15:50;;;;;;;1.63;1.13;;;13.20;99.90;;;;;;5000568;28;20521;-86
2023/10/31 03:18:34;;;;;;;3.77;0.90;;;13.00;99.90;;;;;;4986804;28;21081;-86
2023/10/31 03:21:16;;;;;;;1.30;1.20;;;13.00;99.90;;;;;;4988839;28;20463;-87
2023/10/31 03:24:35;;;;;;;;;;;;;;;;;;;;;
2023/10/31 03:30:14;;;;;;;2.00;1.37;;;12.60;99.90;;;;;;4998023;28;20459;-86
2023/10/31 03:33:32;;;;;;;1.30;1.20;;;12.60;99.90;;;;;;4971757;28;20475;-87
2023/10/31 03:36:43;;;;;;;1.17;0.97;;;12.70;99.90;;;;;;4969852;28;20451;-87
2023/10/31 03:39:19;;;;;;;2.77;0.90;;;12.70;99.90;;;;;;4977658;28;20483;-88
2023/10/31 03:42:05;;;;;;;1.00;0.90;;;12.70;99.90;;;;;;4980108;28;20476;-87
2023/10/31 03:45:11;;;;;;;1.13;1.03;;;12.70;99.90;;;;;;4961984;28;20522;-87
2023/10/31 03:48:04;;;;;;;2.20;0.87;;;12.60;99.90;;;;;;4991928;28;20463;-88
2023/10/31 03:51:14;;;;;;;1.37;1.00;;;12.60;99.90;;;;;;4996380;28;20497;-88
2023/10/31 03:54:40;;;;;;;3.30;0.90;;;12.60;99.90;;;;;;4987399;28;20558;-87
2023/10/31 03:57:42;;;;;;;1.73;0.80;;;12.70;99.90;;;;;;4937949;28;20491;-87
2023/10/31 04:00:41;;;;;;;0.80;0.80;;;13.00;99.90;;;;;;5000055;28;20456;-87
2023/10/31 04:03:20;;;;;;;3.50;0.87;;;13.30;99.90;;;;;;4980105;28;20475;-87
2023/10/31 04:06:00;;;;;;;1.03;0.80;;;13.40;99.90;;;;;;4993514;28;20530;-87
2023/10/31 04:08:48;;;;;;;1.70;0.80;;;13.50;99.90;;;;;;4993450;28;20447;-87
2023/10/31 04:11:38;;;;;;;0.70;0.70;;;13.40;99.90;;;;;;4978106;28;20590;-86
2023/10/31 04:14:36;;;;;;;;;;;;;;;;;;;;;
2023/10/31 04:18:20;;;;;;;2.50;0.90;;;13.40;99.90;;;;;;4969893;28;20431;-85
2023/10/31 04:24:41;;;;;;;1.33;0.77;;;13.40;99.90;;;;;;4961503;28;20506;-87
2023/10/31 04:28:07;;;;;;;0.80;0.77;;;13.30;99.90;;;;;;5003035;28;20459;-87
2023/10/31 04:31:15;;;;;;;1.83;0.90;;;13.30;99.90;;;;;;5001260;28;20450;-86
2023/10/31 04:34:22;;;;;;;2.10;0.60;;;13.20;99.90;;;;;;4999358;28;21085;-85
2023/10/31 04:37:19;;;;;;;0.70;0.70;;;13.00;99.90;;;;;;4987829;28;20439;-87
2023/10/31 04:40:05;;;;;;;1.00;0.80;;;12.90;99.90;;;;;;4991559;28;20479;-85
2023/10/31 04:43:01;;;;;;;0.90;0.90;;;13.00;99.90;;;;;;4977126;28;20721;-87
2023/10/31 04:45:48;;;;;;;0.70;0.70;;;12.90;99.90;;;;;;4974347;28;21088;-86
2023/10/31 04:48:55;;;;;;;0.80;0.70;;;13.10;99.90;;;;;;4996857;28;20435;-86
2023/10/31 04:51:49;;;;;;;1.27;0.80;;;13.30;99.90;;;;;;4995117;28;20450;-86
2023/10/31 04:54:26;;;;;;;0.80;0.77;;;13.30;99.90;;;;;;4983117;28;20558;-87
2023/10/31 04:57:10;;;;;;;1.23;0.90;;;13.30;99.90;;;;;;4999640;28;20451;-87
2023/10/31 05:00:17;;;;;;;1.20;0.67;;;13.10;99.90;;;;;;4983963;28;20489;-86
2023/10/31 05:03:07;;;;;;;1.20;1.10;;;12.90;99.90;;;;;;4957617;28;20991;-86
2023/10/31 05:06:31;;;;;;;0.70;0.70;;;12.90;99.90;;;;;;4957674;28;21002;-87
2023/10/31 05:09:19;;;;;;;1.00;0.90;;;12.90;99.90;;;;;;4950284;28;20504;-88
2023/10/31 05:12:20;;;;;;;2.10;0.90;;;12.90;99.90;;;;;;4960188;28;20465;-87
2023/10/31 05:15:40;;;;;;;1.20;0.83;;;12.90;99.90;;;;;;4961546;28;20792;-88
2023/10/31 05:18:40;;;;;;;1.10;0.77;;;12.90;99.90;;;;;;4932950;28;20502;-86
2023/10/31 05:25:13;;;;;;;;;;;;;;;;;;;;;
2023/10/31 05:28:12;;;;;;;1.40;1.07;;;12.80;99.90;;;;;;4960396;28;20437;-84
2023/10/31 05:31:26;;;;;;;1.07;1.00;;;12.80;99.90;;;;;;4945384;28;20437;-86
2023/10/31 05:34:58;;;;;;;1.57;1.20;;;12.70;99.90;;;;;;5010911;28;20490;-86
2023/10/31 05:38:04;;;;;;;1.30;1.20;;;12.70;99.90;;;;;;5012670;28;20538;-87
2023/10/31 05:45:00;;;;;;;1.20;1.20;;;12.70;99.90;;;;;;4992404;28;20487;-87
2023/10/31 05:47:38;;;;;;;1.03;1.03;;;12.70;99.90;;;;;;4983998;28;20462;-87
2023/10/31 05:50:22;;;;;;;1.63;1.53;;;12.70;99.90;;;;;;4983436;28;20456;-88
2023/10/31 05:53:34;;;;;;;;;;;;;;;;;;;;;
2023/10/31 05:56:44;;;;;;;1.03;0.93;;;12.60;99.90;;;;;;4989321;28;20438;-86
2023/10/31 05:59:58;;;;;;;1.50;1.40;;;12.70;99.90;;;;;;4988323;28;20546;-88
2023/10/31 06:39:32;;;;;;;2.20;1.80;;;12.70;99.90;;;;;;5017672;28;20513;-85
2023/10/31 06:46:35;;;;;;;2.37;2.17;;;12.70;99.90;;;;;;4967142;28;20458;-85
2023/10/31 06:50:11;;;;;;;3.97;1.90;;;12.70;99.90;;;;;;4982757;28;20454;-88
2023/10/31 06:53:35;;;;;;;1.80;1.70;;;12.70;99.90;;;;;;4980851;28;20452;-89
2023/10/31 06:57:34;;;;;;;;;;;;;;;;;;;;;
2023/10/31 07:04:51;;;;;;;2.67;2.00;;;12.80;99.90;;;;;;5536405;23;20511;-86
2023/10/31 07:08:30;;;;;;;;;;;;;;;;;;;;;
2023/10/31 07:50:15;;;;;;;2.90;2.67;;;12.80;99.90;;;;;;5026634;28;20486;-88
2023/10/31 07:54:04;;;;;;;;;;;;;;;;;;;;;
2023/10/31 07:57:14;;;;;;;2.23;2.00;;;12.90;99.90;;;;;;5008007;28;20434;-86
2023/10/31 08:00:29;;;;;;;3.27;2.27;;;13.00;99.90;;;;;;5006944;28;20483;-86
2023/10/31 08:03:18;;;;;;;2.43;2.00;;;13.10;99.90;;;;;;4928334;29;20587;-89
2023/10/31 08:10:48;;;;;;;2.17;1.97;;;13.10;99.90;;;;;;4887049;29;20563;-87
2023/10/31 08:18:07;;;;;;;4.23;1.90;;;13.10;99.90;;;;;;4875322;29;20548;-87
2023/10/31 08:21:55;;;;;;;3.17;2.30;;;13.30;99.90;;;;;;4821177;29;20949;-86
2023/10/31 08:39:51;;;;;;;;;;;;;;;;;;;;;
2023/10/31 09:37:53;;;;;;;4.77;1.70;;;14.90;98.40;;;;;;5038141;26;20505;-88
2023/10/31 09:41:18;;;;;;;2.27;1.97;;;14.60;98.50;;;;;;5033373;28;20473;-87
2023/10/31 09:55:40;;;;;;;;;;;;;;;;;;;;;
2023/10/31 09:59:10;;;;;;;;;;;;;;;;;;;;;
2023/10/31 10:51:48;;;;;;;;;;;;;;;;;;;;;
2023/10/31 11:38:35;;;;;;;1.50;0.70;;;15.70;94.00;;;;;;5060611;28;20522;-88
2023/10/31 11:41:39;;;;;;;2.30;1.00;;;15.70;93.70;;;;;;5062927;28;20455;-91
2023/10/31 13:16:00;;;;;;;4.93;1.13;;;15.90;93.10;;;;;;5016955;28;20474;-86
2023/10/31 13:19:24;;;;;;;1.83;0.90;;;15.90;93.30;;;;;;4979797;28;20508;-86
2023/10/31 13:25:59;;;;;;;3.60;1.90;;;15.80;93.50;;;;;;4964581;28;20447;-87
2023/10/31 13:33:02;;;;;;;1.40;0.80;;;15.80;93.70;;;;;;5022849;28;20896;-88
2023/10/31 13:40:43;;;;;;;;;;;;;;;;;;;;;
2023/10/31 13:47:30;;;;;;;2.67;1.20;;;15.60;93.90;;;;;;4852185;29;20441;-88
2023/10/31 13:55:38;;;;;;;1.67;1.00;;;15.50;93.60;;;;;;5158570;23;20483;-87
2023/10/31 13:59:09;;;;;;;;;;;;;;;;;;;;;
2023/10/31 14:11:05;;;;;;;1.37;0.83;;;15.90;93.60;;;;;;5039199;28;20516;-86
2023/10/31 14:21:53;;;;;;;2.23;0.90;;;15.60;93.80;;;;;;4965153;28;20446;-88
2023/10/31 14:25:28;;;;;;;2.30;1.10;;;15.90;93.60;;;;;;4927343;29;20501;-87
2023/10/31 14:33:18;;;;;;;2.10;1.00;;;16.30;92.90;;;;;;4918989;29;20513;-86
2023/10/31 14:36:59;;;;;;;1.50;0.80;;;16.20;93.20;;;;;;4879298;29;20786;-87
2023/10/31 14:40:50;;;;;;;2.20;1.60;;;16.30;92.60;;;;;;4873058;29;21178;-87
2023/10/31 15:11:28;;;;;;;2.63;1.17;;;15.60;93.70;;;;;;5046052;28;20484;-87
2023/10/31 15:14:51;;;;;;;;;;;;;;;;;;;;;
2023/10/31 15:21:15;;;;;;;3.27;1.33;;;16.30;92.90;;;;;;5018941;28;20894;-89
2023/10/31 15:24:52;;;;;;;;;;;;;;;;;;;;;
2023/10/31 15:30:21;;;;;;;4.03;0.90;;;16.30;93.40;;;;;;5168785;23;20488;-89
2023/10/31 15:37:48;;;;;;;;;;;;;;;;;;;;;
2023/10/31 15:41:23;;;;;;;2.13;1.30;;;15.90;94.20;;;;;;4914797;29;21225;-87
2023/10/31 15:48:21;;;;;;;1.50;1.30;;;15.90;94.80;;;;;;4916949;29;20485;-88
2023/10/31 15:51:22;;;;;;;2.70;1.23;;;15.70;94.70;;;;;;4879768;29;20518;-88
2023/10/31 15:58:29;;;;;;;2.57;1.30;;;15.60;95.50;;;;;;4912008;29;20411;-87
2023/10/31 16:01:34;;;;;;;2.63;0.93;;;15.60;95.50;;;;;;4912064;29;20431;-89
2023/10/31 16:04:35;;;;;;;1.20;0.93;;;15.40;95.80;;;;;;4914473;29;20510;-87
2023/10/31 16:07:41;;;;;;;2.60;1.60;;;15.50;96.90;;;;;;4840003;29;20459;-88
2023/10/31 16:18:32;;;;;;;1.50;1.03;;;15.00;99.90;;;;;;4870006;29;20425;-87
2023/10/31 16:21:44;;;;;;;3.93;1.20;;;14.90;99.90;;;;;;4882951;29;20451;-87
2023/10/31 16:29:04;;;;;;;5.17;1.73;;;14.80;99.90;;;;;;4908575;29;20422;-88
2023/10/31 16:32:39;;;;;;;;;;;;;;;;;;;;;
2023/10/31 16:36:24;;;;;;;1.90;1.50;;;15.20;99.90;;;;;;4878469;29;20429;-87
2023/10/31 16:40:05;;;;;;;;;;;;;;;;;;;;;
2023/10/31 16:43:41;;;;;;;;;;;;;;;;;;;;;
2023/10/31 16:46:53;;;;;;;3.20;1.70;;;15.20;99.90;;;;;;4866800;29;20450;-87
2023/10/31 16:50:14;;;;;;;4.00;1.93;;;15.10;99.90;;;;;;4833942;29;20444;-87
2023/10/31 16:57:45;;;;;;;3.53;1.73;;;14.50;99.90;;;;;;4937911;29;20462;-88
2023/10/31 17:01:25;;;;;;;;;;;;;;;;;;;;;
2023/10/31 17:04:36;;;;;;;3.00;1.63;;;14.90;99.90;;;;;;5041672;28;20928;-86
2023/10/31 17:07:48;;;;;;;;;;;;;;;;;;;;;
2023/10/31 17:14:29;;;;;;;5.10;1.80;;;14.70;99.90;;;;;;5026434;28;20523;-88
2023/10/31 17:17:52;;;;;;;4.87;2.10;;;14.60;99.90;;;;;;4993627;28;20474;-88
2023/10/31 17:24:46;;;;;;;;;;;;;;;;;;;;;
2023/10/31 17:28:05;;;;;;;2.53;1.87;;;15.00;99.90;;;;;;4991439;28;20423;-88
2023/10/31 17:45:52;;;;;;;;;;;;;;;;;;;;;
2023/10/31 17:48:39;;;;;;;2.40;2.20;;;14.60;99.90;;;;;;4924087;29;20463;-86
2023/10/31 17:55:21;;;;;;;3.53;1.87;;;14.60;99.90;;;;;;4881883;29;20472;-89
2023/10/31 18:14:39;;;;;;;2.23;1.60;;;14.20;99.90;;;;;;4997696;28;20482;-89
2023/10/31 18:18:00;;;;;;;2.13;1.53;;;14.30;99.90;;;;;;4986800;28;20520;-88
2023/10/31 18:21:54;;;;;;;1.63;1.53;;;14.40;99.90;;;;;;4983621;28;20545;-88
2023/10/31 18:28:44;;;;;;;4.20;2.13;;;14.50;99.90;;;;;;4853866;29;20454;-86
2023/10/31 18:32:26;;;;;;;2.17;1.97;;;14.40;99.90;;;;;;4900036;29;20487;-87
2023/10/31 18:35:52;;;;;;;3.17;2.20;;;14.40;99.90;;;;;;4925614;29;20450;-87
2023/10/31 18:39:45;;;;;;;4.63;2.30;;;14.30;99.90;;;;;;4896433;29;20436;-87
2023/10/31 18:42:50;;;;;;;2.50;1.77;;;14.20;99.90;;;;;;4901616;29;20490;-86
2023/10/31 18:45:51;;;;;;;3.27;2.33;;;14.20;99.90;;;;;;4900075;29;20455;-87
2023/10/31 18:49:32;;;;;;;6.73;2.30;;;14.10;99.90;;;;;;4779172;29;20456;-91
2023/10/31 18:52:19;;;;;;;2.80;2.00;;;14.10;99.90;;;;;;4791082;29;20558;-86
2023/10/31 18:55:21;;;;;;;1.93;1.83;;;14.20;99.90;;;;;;4806738;29;20441;-88
2023/10/31 18:58:52;;;;;;;3.70;2.60;;;14.20;99.90;;;;;;4799534;29;20481;-89
2023/10/31 19:10:22;;;;;;;3.73;2.40;;;14.40;99.90;;;;;;5314669;23;20530;-89
2023/10/31 19:17:56;;;;;;;3.03;2.20;;;14.30;99.90;;;;;;4933704;29;21049;-88
2023/10/31 19:27:32;;;;;;;2.83;2.53;;;14.40;99.90;;;;;;5014490;23;20494;-87
2023/10/31 19:30:01;;;;;;;3.87;2.70;;;14.40;99.90;;;;;;5006623;28;20483;-87
2023/10/31 19:32:32;;;;;;;2.37;2.07;;;14.50;99.90;;;;;;5022267;28;20542;-87
2023/10/31 19:35:03;;;;;;;2.83;2.00;;;14.40;99.90;;;;;;5001470;28;20458;-87
2023/10/31 20:03:47;;;;;;;2.90;2.43;;;14.10;99.90;;;;;;4856554;29;20518;-87
2023/10/31 20:06:48;;;;;;;2.43;2.23;;;14.20;99.90;;;;;;4883529;29;21163;-86
2023/10/31 20:10:06;;;;;;;3.70;3.07;;;14.20;99.90;;;;;;4911651;29;20459;-87
2023/10/31 20:13:01;;;;;;;;;;;;;;;;;;;;;
2023/10/31 20:16:26;;;;;;;2.97;2.70;;;14.10;99.90;;;;;;4985390;28;20482;-87
2023/10/31 20:19:52;;;;;;;5.03;3.17;;;14.00;99.90;;;;;;4975763;28;20788;-87
2023/10/31 20:23:04;;;;;;;;;;;;;;;;;;;;;
2023/10/31 20:25:50;;;;;;;3.13;2.80;;;14.00;99.90;;;;;;4986178;28;20463;-86
2023/10/31 20:28:43;;;;;;;3.30;2.93;;;14.20;99.90;;;;;;4968336;28;20467;-87
2023/10/31 20:31:41;;;;;;;3.20;2.67;;;14.10;99.90;;;;;;4977134;28;20458;-86
2023/10/31 20:35:01;;;;;;;3.67;2.90;;;14.10;99.90;;;;;;4989094;28;20454;-87
2023/10/31 20:37:48;;;;;;;4.00;2.53;;;14.10;99.90;;;;;;4986348;28;20453;-88
2023/10/31 20:44:44;;;;;;;6.00;2.60;;;14.00;99.90;;;;;;4976785;28;20817;-87
2023/10/31 20:47:34;;;;;;;4.17;3.10;;;14.10;99.90;;;;;;4981475;28;20499;-86
2023/10/31 20:50:27;;;;;;;2.90;2.27;;;14.10;99.90;;;;;;4944099;28;20444;-87
2023/10/31 20:53:37;;;;;;;;;;;;;;;;;;;;;
2023/10/31 20:56:45;;;;;;;2.90;2.13;;;14.00;99.90;;;;;;4998148;28;20565;-86
2023/10/31 21:00:28;;;;;;;2.90;2.03;;;14.00;99.90;;;;;;4969110;28;20487;-87
2023/10/31 21:03:25;;;;;;;3.30;2.10;;;14.10;99.90;;;;;;4968903;28;20499;-88
2023/10/31 21:06:37;;;;;;;;;;;;;;;;;;;;;
2023/10/31 21:10:05;;;;;;;3.70;2.67;;;14.00;99.90;;;;;;4995672;28;20435;-88
2023/10/31 21:16:41;;;;;;;5.07;3.37;;;14.10;99.90;;;;;;4996591;28;20518;-87
2023/10/31 21:20:01;;;;;;;5.30;3.23;;;14.10;99.90;;;;;;4997749;28;20497;-87
2023/10/31 21:22:56;;;;;;;3.70;3.10;;;14.10;99.90;;;;;;4976432;28;20467;-88
2023/10/31 21:26:15;;;;;;;4.40;3.17;;;14.10;99.90;;;;;;4931842;29;20457;-87
2023/10/31 21:29:26;;;;;;;3.90;2.70;;;14.10;99.90;;;;;;4938476;29;20432;-89
2023/10/31 21:36:11;;;;;;;5.10;3.20;;;14.10;99.90;;;;;;4977986;28;20428;-88
2023/10/31 21:39:12;;;;;;;4.97;3.10;;;14.10;99.90;;;;;;4900524;29;20463;-88
2023/10/31 22:01:28;;;;;;;;;;;;;;;;;;;;;
2023/10/31 22:56:55;;;;;;;3.47;3.10;;;14.10;99.90;;;;;;5004156;28;20483;-86
2023/10/31 23:05:05;;;;;;;7.00;4.00;;;14.00;99.90;;;;;;4985924;28;20449;-84
2023/10/31 23:08:06;;;;;;;4.17;3.77;;;14.10;99.90;;;;;;4965717;28;21226;-88
2023/10/31 23:15:02;;;;;;;4.67;3.70;;;14.10;99.90;;;;;;4988864;28;20467;-86
2023/10/31 23:18:41;;;;;;;;;;;;;;;;;;;;;
2023/10/31 23:22:00;;;;;;;7.50;4.00;;;14.10;99.90;;;;;;4987915;28;20531;-87
2023/10/31 23:28:34;;;;;;;4.23;2.90;;;14.10;99.90;;;;;;4910201;29;20438;-86
2023/10/31 23:49:57;;;;;;;5.20;3.50;;;14.10;99.90;;;;;;5000800;28;20946;-86
2023/10/31 23:54:11;;;;;;;3.30;2.53;;;14.30;99.90;;;;;;4921347;29;20479;-87
2023/10/31 23:57:31;;;;;;;6.23;3.30;;;14.30;99.90;;;;;;4902083;29;20438;-87
